Latest Weather Observations for Frederick Reef

IDQ60801

Issued at 12:02 pm EST Sunday 25 September 2016 (issued every 30 minutes, with the page automatically refreshed every 10 minutes)

About weather observations | Map of weather stations | Latest weather observations for QLD | Other Formats
Station Details ID: 200701 Name: FREDERICK REEF Lat: -20.94 Lon: 154.40 Height: 4.9 m
Data from the previous 72 hours. | See also: Recent months for locations in Queensland
Date/Time
EST
Temp
°C
App
Temp
°C
Dew
Point
°C
Rel
Hum
%
Delta-T
°C
Wind Press
QNH
hPa
Press
MSL
hPa
Rain since
9am
mm
Dir  Spd
km/h
Gust
km/h
Spd
kts
Gust
kts
25/11:30am 24.9 - - - - N 26 30 14 16 1011.5 - -
25/11:00am 25.0 - - - - NNW 22 26 12 14 1012.2 1012.0 -
25/10:30am 25.4 - - - - N 22 24 12 13 1012.6 - -
25/10:00am 25.1 - - - - NNW 22 - 12 - - 1012.9 -
25/09:30am 25.2 - - - - N 24 28 13 15 1012.9 - -
25/09:00am 25.2 - - - - N 20 20 11 11 1013.3 1013.2 -
25/08:30am 24.9 - - - - N 17 19 9 10 1013.6 - -
25/08:00am 24.9 - - - - N 19 22 10 12 1013.3 1013.4 -
25/07:30am 24.7 - - - - N 22 26 12 14 1012.8 - -
25/07:00am 24.9 - - - - N 22 26 12 14 1012.4 1012.4 -
25/06:30am 24.5 - - - - N 20 22 11 12 1012.0 - -
25/06:00am 24.2 - - - - N 19 20 10 11 1011.9 1011.9 -
25/05:30am 23.7 - - - - N 22 24 12 13 1011.4 - -
25/05:00am 23.7 - - - - N 20 24 11 13 1011.1 1011.2 -
25/04:30am 23.7 - - - - N 20 24 11 13 1010.7 - -
25/04:00am 23.9 - - - - N 22 24 12 13 1010.3 1010.4 -
25/03:30am 23.9 - - - - CALM 0 6 0 3 1010.2 - -
25/03:00am 23.8 - - - - CALM 0 4 0 2 1010.1 1010.1 -
25/02:30am 23.9 - - - - CALM 0 6 0 3 1010.2 - -
25/02:00am 23.9 - - - - CALM 0 6 0 3 1010.3 1010.3 -
25/01:30am 24.0 - - - - CALM 0 6 0 3 1010.5 - -
25/01:00am 24.0 - - - - CALM 0 6 0 3 1010.9 1010.8 -
25/12:30am 24.0 - - - - CALM 0 4 0 2 1011.2 - -
25/12:00am 23.9 - - - - CALM 0 6 0 3 1011.4 1011.4 -
 
Date/Time
EST
Temp
°C
App
Temp
°C
Dew
Point
°C
Rel
Hum
%
Delta-T
°C
Wind Press
QNH
hPa
Press
MSL
hPa
Rain since
9am
mm
Dir  Spd
km/h
Gust
km/h
Spd
kts
Gust
kts
24/11:30pm 24.3 - - - - CALM 0 4 0 2 1011.5 - -
24/11:00pm 24.0 - - - - CALM 0 6 0 3 1012.0 1011.9 -
24/10:30pm 24.2 - - - - CALM 0 4 0 2 1012.3 - -
24/10:00pm 24.0 - - - - CALM 0 4 0 2 1012.6 1012.6 -
24/09:30pm 24.1 - - - - CALM 0 6 0 3 1012.5 - -
24/09:00pm 24.1 - - - - CALM 0 4 0 2 1012.5 1012.5 -
24/08:30pm 24.0 - - - - CALM 0 4 0 2 1012.4 - -
24/08:00pm 24.0 - - - - CALM 0 6 0 3 1012.1 1012.2 -
24/07:30pm 24.2 - - - - CALM 0 7 0 4 1012.1 - -
24/07:00pm 24.0 - - - - CALM 0 6 0 3 1011.7 1011.8 -
24/06:30pm 24.0 - - - - NE 2 6 1 3 1011.4 - -
24/06:00pm 24.1 - - - - ENE 2 6 1 3 1011.1 1011.1 -
24/05:30pm 24.5 - - - - ENE 9 15 5 8 1010.9 - -
24/05:00pm 24.4 - - - - NE 9 13 5 7 1010.7 1010.7 -
24/04:30pm 25.1 - - - - NNE 7 9 4 5 1010.6 - -
24/04:00pm 25.0 - - - - ENE 2 6 1 3 1010.4 1010.4 -
24/03:30pm 24.9 - - - - CALM 0 2 0 1 1010.4 - -
24/03:00pm 24.9 - - - - CALM 0 7 0 4 1010.5 1010.4 -
24/02:30pm 25.3 - - - - CALM 0 4 0 2 1010.7 - -
24/02:00pm 25.8 - - - - CALM 0 7 0 4 1011.0 1010.9 -
24/01:30pm 25.3 - - - - CALM 0 6 0 3 1011.4 - -
24/01:00pm 26.0 - - - - CALM 0 7 0 4 1011.8 1011.7 -
24/12:30pm 26.2 - - - - CALM 0 4 0 2 1012.2 - -
24/12:00pm 26.0 - - - - CALM 0 4 0 2 1012.6 1012.5 -
24/11:30am 26.4 - - - - CALM 0 0 0 0 1013.0 - -
24/11:00am 26.4 - - - - CALM 0 4 0 2 1013.4 1013.4 -
24/10:30am 26.0 - - - - CALM 0 2 0 1 1013.6 - -
24/10:00am 25.8 - - - - CALM 0 2 0 1 1013.9 1013.9 -
24/09:30am 24.6 - - - - CALM 0 7 0 4 1014.0 - -
24/09:00am 25.7 - - - - CALM 0 6 0 3 1013.9 1013.9 -
24/08:30am 24.6 - - - - CALM 0 7 0 4 1013.9 - -
24/08:00am 24.1 - - - - CALM 0 4 0 2 1013.8 1013.9 -
24/07:30am 23.8 - - - - CALM 0 7 0 4 1013.5 - -
24/07:00am 23.8 - - - - CALM 0 6 0 3 1013.2 1013.3 -
24/06:30am 23.6 - - - - CALM 0 4 0 2 1012.8 - -
24/06:00am 23.5 - - - - NW 2 9 1 5 1012.4 1012.5 -
24/05:30am 23.4 - - - - CALM 0 7 0 4 1011.9 - -
24/05:00am 23.4 - - - - CALM 0 6 0 3 1011.8 1011.9 -
24/04:30am 23.3 - - - - CALM 0 0 0 0 1011.7 - -
24/04:00am 23.4 - - - - CALM 0 6 0 3 1011.5 1011.5 -
24/03:30am 23.6 - - - - CALM 0 6 0 3 1011.3 - -
24/03:00am 23.4 - - - - CALM 0 6 0 3 1011.4 1011.4 -
24/02:30am 23.4 - - - - CALM 0 2 0 1 1011.3 - -
24/02:00am 23.4 - - - - CALM 0 2 0 1 1011.5 1011.5 -
24/01:30am 23.7 - - - - CALM 0 2 0 1 1011.8 - -
24/01:00am 23.7 - - - - CALM 0 4 0 2 1012.2 1012.1 -
24/12:30am 23.6 - - - - CALM 0 7 0 4 1012.2 - -
24/12:00am 23.6 - - - - CALM 0 4 0 2 1012.3 1012.3 -
 
Date/Time
EST
Temp
°C
App
Temp
°C
Dew
Point
°C
Rel
Hum
%
Delta-T
°C
Wind Press
QNH
hPa
Press
MSL
hPa
Rain since
9am
mm
Dir  Spd
km/h
Gust
km/h
Spd
kts
Gust
kts
23/11:30pm 23.7 - - - - CALM 0 6 0 3 1012.5 - -
23/11:00pm 23.7 - - - - CALM 0 0 0 0 1012.6 1012.5 -
23/10:30pm 23.9 - - - - CALM 0 7 0 4 1012.8 - -
23/10:00pm 23.9 - - - - CALM 0 4 0 2 1012.9 1012.8 -
23/09:30pm 23.9 - - - - CALM 0 7 0 4 1012.9 - -
23/09:00pm 23.7 - - - - CALM 0 4 0 2 1012.9 1012.9 -
23/08:30pm 23.8 - - - - CALM 0 6 0 3 1012.8 - -
23/08:00pm 24.0 - - - - CALM 0 6 0 3 1012.7 1012.7 -
23/07:30pm 24.2 - - - - CALM 0 2 0 1 1012.3 - -
23/07:00pm 24.2 - - - - CALM 0 7 0 4 1012.0 1012.1 -
23/06:30pm 24.5 - - - - CALM 0 6 0 3 1011.7 - -
23/06:00pm 24.9 - - - - CALM 0 6 0 3 1011.5 1011.6 -
23/05:30pm 26.2 - - - - CALM 0 7 0 4 1011.2 - -
23/05:00pm 26.5 - - - - CALM 0 4 0 2 1010.9 1011.0 -
23/04:30pm 27.3 - - - - CALM 0 6 0 3 1010.7 - -
23/04:00pm 26.8 - - - - CALM 0 6 0 3 1010.5 1010.6 -
23/03:30pm 27.4 - - - - CALM 0 6 0 3 1010.3 - -
23/03:00pm 26.9 - - - - CALM 0 6 0 3 1010.4 1010.3 -
23/02:30pm 26.2 - - - - CALM 0 7 0 4 1010.5 - -
23/02:00pm 26.5 - - - - CALM 0 6 0 3 1010.6 1010.6 -
23/01:30pm 24.7 - - - - CALM 0 6 0 3 1010.8 - -
23/01:00pm 24.3 - - - - CALM 0 0 0 0 1011.2 1011.2 -
23/12:30pm 24.4 - - - - S 4 7 2 4 1011.5 - -
23/12:00pm 24.3 - - - - S 9 15 5 8 1011.8 1011.8 -
23/11:30am 24.2 - - - - S 13 17 7 9 1012.3 - -
23/11:00am 24.2 - - - - SSW 15 19 8 10 1012.8 1012.7 -
23/10:30am 24.5 - - - - S 19 22 10 12 1013.1 - -
23/10:00am 24.5 - - - - SSW 20 24 11 13 1013.2 1013.2 -
23/09:30am 24.3 - - - - S 20 24 11 13 1013.3 - -
23/09:00am 24.4 - - - - S 20 24 11 13 1013.3 1013.3 -
23/08:30am 24.3 - - - - SSW 20 24 11 13 1013.3 - -
23/08:00am 24.3 - - - - SSW 9 11 5 6 1013.2 1013.3 -
23/07:30am 24.1 - - - - SSW 9 11 5 6 1013.1 - -
23/07:00am 23.9 - - - - SSW 15 19 8 10 1012.9 1012.9 -
23/06:30am 23.7 - - - - SW 13 17 7 9 1012.7 - -
23/06:00am 23.8 - - - - SW 17 19 9 10 1012.5 1012.6 -
23/05:30am 23.9 - - - - SW 19 20 10 11 1012.3 - -
23/05:00am 23.8 - - - - CALM 0 7 0 4 1012.1 1012.1 -
23/04:30am 23.7 - - - - CALM 0 6 0 3 1011.8 - -
23/04:00am 23.8 - - - - CALM 0 7 0 4 1011.6 1011.6 -
23/03:30am 23.9 - - - - CALM 0 6 0 3 1011.4 - -
23/03:00am 23.7 - - - - CALM 0 4 0 2 1011.4 1011.4 -
23/02:30am 23.8 - - - - SW 2 7 1 4 1011.6 - -
23/02:00am 23.9 - - - - CALM 0 6 0 3 1011.7 1011.7 -
23/01:30am 24.1 - - - - CALM 0 4 0 2 1012.0 - -
23/01:00am 24.0 - - - - CALM 0 4 0 2 1012.2 1012.1 -
23/12:30am 24.0 - - - - CALM 0 9 0 5 1012.4 - -
23/12:00am 23.9 - - - - CALM 0 0 0 0 1012.5 1012.5 -
 
Date/Time
EST
Temp
°C
App
Temp
°C
Dew
Point
°C
Rel
Hum
%
Delta-T
°C
Wind Press
QNH
hPa
Press
MSL
hPa
Rain since
9am
mm
Dir  Spd
km/h
Gust
km/h
Spd
kts
Gust
kts
22/11:30pm 24.0 - - - - CALM 0 0 0 0 1012.7 - -
22/11:00pm 24.1 - - - - CALM 0 6 0 3 1012.9 1012.9 -
22/10:30pm 24.0 - - - - CALM 0 4 0 2 1013.0 - -
22/10:00pm 24.3 - - - - CALM 0 4 0 2 1013.0 1013.0 -
22/09:30pm 24.7 - - - - CALM 0 7 0 4 1013.0 - -
22/09:00pm 24.4 - - - - CALM 0 6 0 3 1013.0 1012.9 -
22/08:30pm 24.4 - - - - CALM 0 0 0 0 1012.9 - -
22/08:00pm 24.3 - - - - CALM 0 0 0 0 1012.9 1012.9 -
22/07:30pm 24.3 - - - - CALM 0 6 0 3 1012.6 - -
22/07:00pm 24.2 - - - - CALM 0 2 0 1 1012.6 1012.5 -
22/06:30pm 23.8 - - - - CALM 0 4 0 2 1012.4 - -
22/06:00pm 23.9 - - - - CALM 0 6 0 3 1012.1 1012.1 -
22/05:30pm 24.4 - - - - CALM 0 6 0 3 1011.8 - -
22/05:00pm 24.3 - - - - CALM 0 4 0 2 1011.4 1011.5 -
22/04:30pm 24.5 - - - - CALM 0 4 0 2 1011.2 - -
22/04:00pm 24.4 - - - - CALM 0 19 0 10 1011.1 1011.0 -
22/03:30pm 24.7 - - - - NW 19 20 10 11 1010.8 - -
22/03:00pm 24.4 - - - - NW 19 20 10 11 1010.6 1010.5 -
22/02:30pm 24.5 - - - - NW 20 22 11 12 1010.8 - -
22/02:00pm 24.5 - - - - NNW 20 24 11 13 1011.0 1010.9 -
22/01:30pm 24.7 - - - - CALM 0 4 0 2 1011.5 - -
22/01:00pm 24.7 - - - - CALM 0 4 0 2 1011.7 1011.7 -
22/12:30pm 24.4 - - - - NW 6 19 3 10 1012.3 - -

Other Formats:

Comma delimited format used in spreadsheet applications
http://www.bom.gov.au/fwo/IDQ60801/IDQ60801.94393.axf

JavaScript Object Notation format (JSON) in row-major order
http://www.bom.gov.au/fwo/IDQ60801/IDQ60801.94393.json